createdAt,value
2019-03-29T00:00:01.650Z,8.4
2019-03-29T00:05:01.817Z,8.3
2019-03-29T00:10:01.829Z,8.4
2019-03-29T00:15:02.140Z,8.4
2019-03-29T00:20:01.963Z,8.4
2019-03-29T00:25:02.236Z,8.4
2019-03-29T00:30:02.114Z,8.5
2019-03-29T00:35:01.382Z,8.6
2019-03-29T00:40:01.670Z,8.6
2019-03-29T00:45:02.480Z,8.7
2019-03-29T00:50:01.292Z,8.8
2019-03-29T00:55:01.968Z,8.8
2019-03-29T01:00:01.913Z,8.9
2019-03-29T01:05:02.274Z,8.9
2019-03-29T01:10:01.838Z,9
2019-03-29T01:15:01.954Z,9
2019-03-29T01:20:01.248Z,9
2019-03-29T01:25:02.258Z,9
2019-03-29T01:30:01.549Z,9
2019-03-29T01:35:02.084Z,9
2019-03-29T01:40:02.073Z,9
2019-03-29T01:45:01.834Z,9
2019-03-29T01:50:01.449Z,9
2019-03-29T01:55:01.810Z,9
2019-03-29T02:00:02.101Z,8.9
2019-03-29T02:05:01.771Z,8.9
2019-03-29T02:10:01.980Z,8.9
2019-03-29T02:15:01.206Z,8.9
2019-03-29T02:20:02.154Z,8.9
2019-03-29T02:25:02.034Z,8.9
2019-03-29T02:30:04.170Z,8.9
2019-03-29T02:35:01.723Z,8.9
2019-03-29T02:40:01.989Z,8.9
2019-03-29T02:45:03.289Z,8.9
2019-03-29T02:50:01.597Z,8.9
2019-03-29T02:55:01.584Z,9
2019-03-29T03:00:02.199Z,9
2019-03-29T03:05:02.133Z,9
2019-03-29T03:10:01.353Z,9
2019-03-29T03:15:02.375Z,9
2019-03-29T03:20:01.460Z,9
2019-03-29T03:25:01.189Z,9
2019-03-29T03:30:01.299Z,9.1
2019-03-29T03:35:01.699Z,9.1
2019-03-29T03:40:06.044Z,9.1
2019-03-29T03:45:01.942Z,9.1
2019-03-29T03:50:02.237Z,9.1
2019-03-29T03:55:02.153Z,9.1
2019-03-29T04:00:01.805Z,9.2
2019-03-29T04:05:01.961Z,9.2
2019-03-29T04:10:01.778Z,9.2
2019-03-29T04:15:01.856Z,9.2
2019-03-29T04:20:01.999Z,9.2
2019-03-29T04:25:02.097Z,9.2
2019-03-29T04:30:01.777Z,9.3
2019-03-29T04:35:01.938Z,9.3
2019-03-29T04:40:07.365Z,9.3
2019-03-29T04:45:01.595Z,9.3
2019-03-29T04:50:01.941Z,9.3
2019-03-29T04:55:01.366Z,9.3
2019-03-29T05:00:01.433Z,9.3
2019-03-29T05:05:01.641Z,9.3
2019-03-29T05:10:01.876Z,9.3
2019-03-29T05:15:01.773Z,9.4
2019-03-29T05:20:01.766Z,9.4
2019-03-29T05:25:02.105Z,9.4
2019-03-29T05:30:01.838Z,9.5
2019-03-29T05:35:01.954Z,9.5
2019-03-29T05:40:02.185Z,9.6
2019-03-29T05:45:01.997Z,9.6
2019-03-29T05:50:01.241Z,9.6
2019-03-29T05:55:02.104Z,9.7
2019-03-29T06:00:02.205Z,9.7
2019-03-29T06:05:01.755Z,9.8
2019-03-29T06:10:01.522Z,9.8
2019-03-29T06:15:02.174Z,9.9
2019-03-29T06:20:02.165Z,9.9
2019-03-29T06:25:01.444Z,10
2019-03-29T06:30:01.976Z,10
2019-03-29T06:35:01.947Z,10.1
2019-03-29T06:40:02.120Z,10.2
2019-03-29T06:45:02.034Z,10.2
2019-03-29T06:50:01.479Z,10.3
2019-03-29T06:55:01.604Z,10.4
2019-03-29T07:00:01.633Z,10.4
2019-03-29T07:05:01.809Z,10.5
2019-03-29T07:10:02.053Z,10.5
2019-03-29T07:15:01.964Z,10.5
2019-03-29T07:20:01.903Z,10.6
2019-03-29T07:25:01.944Z,10.6
2019-03-29T07:30:01.829Z,10.7
2019-03-29T07:35:02.046Z,10.7
2019-03-29T07:40:02.219Z,10.8
2019-03-29T07:45:01.643Z,10.8
2019-03-29T07:50:01.766Z,10.9
2019-03-29T07:55:01.184Z,10.9
2019-03-29T08:00:01.796Z,11
2019-03-29T08:05:01.681Z,11.2
2019-03-29T08:10:03.550Z,11.4
2019-03-29T08:15:01.937Z,11.6
2019-03-29T08:20:24.805Z,11.8
2019-03-29T08:25:02.061Z,12.3
2019-03-29T08:30:01.981Z,12.6
2019-03-29T08:35:02.174Z,12.8
2019-03-29T08:40:01.289Z,12.9
2019-03-29T08:45:01.772Z,13.3
2019-03-29T08:50:01.897Z,13.2
2019-03-29T08:55:01.522Z,13
2019-03-29T09:00:01.581Z,12.8
2019-03-29T09:05:01.883Z,12.7
2019-03-29T09:10:01.793Z,12.6
2019-03-29T09:15:03.749Z,12.6
2019-03-29T09:20:01.740Z,12.7
2019-03-29T09:25:02.207Z,12.8
2019-03-29T09:30:03.506Z,13.1
2019-03-29T09:35:01.735Z,13.2
2019-03-29T09:40:01.697Z,13.2
2019-03-29T09:45:01.164Z,13
2019-03-29T09:50:01.881Z,13
2019-03-29T09:55:01.917Z,13
2019-03-29T10:00:01.645Z,13
2019-03-29T10:05:01.936Z,13.1
2019-03-29T10:10:01.774Z,13.3
2019-03-29T10:15:01.537Z,13.4
2019-03-29T10:20:01.828Z,14
2019-03-29T10:25:02.330Z,14.4
2019-03-29T10:30:01.368Z,14.9
2019-03-29T10:35:01.563Z,15.5
2019-03-29T10:40:01.399Z,15.8
2019-03-29T10:45:01.276Z,16
2019-03-29T10:50:02.099Z,16.4
2019-03-29T10:55:01.457Z,16.2
2019-03-29T11:00:01.749Z,16.1
2019-03-29T11:05:02.062Z,15.6
2019-03-29T11:10:01.829Z,15.6
2019-03-29T11:15:01.957Z,15.8
2019-03-29T11:20:01.855Z,16
2019-03-29T11:25:01.894Z,16.3
2019-03-29T11:30:01.390Z,16.4
2019-03-29T11:35:01.623Z,16.5
2019-03-29T11:40:01.753Z,16.6
2019-03-29T11:45:01.804Z,16.7
2019-03-29T11:50:01.961Z,16.8
2019-03-29T11:55:01.569Z,17
2019-03-29T12:00:02.039Z,17.1
2019-03-29T12:05:02.123Z,16.9
2019-03-29T12:10:01.203Z,16.9
2019-03-29T12:15:02.190Z,17.2
2019-03-29T12:20:01.813Z,17.1
2019-03-29T12:25:01.757Z,17.3
2019-03-29T12:30:02.314Z,16.9
2019-03-29T12:35:01.985Z,16.7
2019-03-29T12:40:01.682Z,16.2
2019-03-29T12:45:01.996Z,16
2019-03-29T12:50:02.102Z,16.1
2019-03-29T12:55:01.611Z,15.9
2019-03-29T13:00:01.358Z,15.8
2019-03-29T13:05:01.710Z,16.1
2019-03-29T13:10:02.208Z,16
2019-03-29T13:15:01.524Z,16.2
2019-03-29T13:20:01.654Z,16.5
2019-03-29T13:25:01.305Z,16.8
2019-03-29T13:30:01.526Z,16.9
2019-03-29T13:35:01.609Z,16.9
2019-03-29T13:40:01.822Z,17.1
2019-03-29T13:45:01.821Z,17.1
2019-03-29T13:50:01.795Z,17.1
2019-03-29T13:55:02.006Z,16.9
2019-03-29T14:00:02.091Z,16.9
2019-03-29T14:05:01.844Z,16.8
2019-03-29T14:10:01.218Z,16.9
2019-03-29T14:15:02.485Z,16.9
2019-03-29T14:20:01.215Z,16.9
2019-03-29T14:25:01.847Z,16.9
2019-03-29T14:30:04.499Z,16.8
2019-03-29T14:35:01.523Z,16.7
2019-03-29T14:40:02.167Z,16.7
2019-03-29T14:45:01.554Z,17
2019-03-29T14:50:01.924Z,16.8
2019-03-29T14:55:01.969Z,16.6
2019-03-29T15:00:01.546Z,16.4
2019-03-29T15:05:02.018Z,16.5
2019-03-29T15:10:01.667Z,16.7
2019-03-29T15:15:06.196Z,16.7
2019-03-29T15:20:02.362Z,16.8
2019-03-29T15:25:02.200Z,16.7
2019-03-29T15:30:02.047Z,16.8
2019-03-29T15:35:01.429Z,16.8
2019-03-29T15:40:01.787Z,17
2019-03-29T15:45:01.566Z,17.1
2019-03-29T15:50:01.231Z,16.9
2019-03-29T15:55:02.025Z,16.9
2019-03-29T16:00:02.065Z,17
2019-03-29T16:05:01.650Z,16.9
2019-03-29T16:10:02.154Z,16.6
2019-03-29T16:15:01.695Z,16.5
2019-03-29T16:20:01.581Z,16.5
2019-03-29T16:25:01.549Z,16.4
2019-03-29T16:30:02.417Z,16.4
2019-03-29T16:35:01.354Z,16.3
2019-03-29T16:40:01.687Z,16.2
2019-03-29T16:45:02.303Z,15.9
2019-03-29T16:50:01.447Z,15.8
2019-03-29T16:55:12.223Z,15.7
2019-03-29T17:00:01.334Z,15.4
2019-03-29T17:05:01.965Z,15.2
2019-03-29T17:10:01.474Z,15
2019-03-29T17:15:01.715Z,14.6
2019-03-29T17:20:01.403Z,14.3
2019-03-29T17:25:02.103Z,14.1
2019-03-29T17:30:02.027Z,13.9
2019-03-29T17:35:01.970Z,13.7
2019-03-29T17:40:02.151Z,13.6
2019-03-29T17:45:01.272Z,13.5
2019-03-29T17:50:02.129Z,13.3
2019-03-29T17:55:01.541Z,13.2
2019-03-29T18:00:02.104Z,13.1
2019-03-29T18:05:01.523Z,13
2019-03-29T18:10:01.807Z,12.9
2019-03-29T18:15:01.777Z,12.8
2019-03-29T18:20:01.879Z,12.6
2019-03-29T18:25:01.916Z,12.5
2019-03-29T18:30:02.045Z,12.4
2019-03-29T18:35:01.232Z,12.2
2019-03-29T18:40:02.292Z,12
2019-03-29T18:45:01.594Z,11.9
2019-03-29T18:50:02.345Z,11.7
2019-03-29T18:55:01.397Z,11.5
2019-03-29T19:00:01.247Z,11.4
2019-03-29T19:05:01.603Z,11.2
2019-03-29T19:10:02.190Z,11.1
2019-03-29T19:15:01.609Z,11
2019-03-29T19:20:01.609Z,10.8
2019-03-29T19:25:01.554Z,10.7
2019-03-29T19:30:02.008Z,10.6
2019-03-29T19:35:01.659Z,10.3
2019-03-29T19:40:01.459Z,10
2019-03-29T19:45:01.984Z,9.9
2019-03-29T19:50:01.695Z,9.8
2019-03-29T19:55:02.058Z,9.7
2019-03-29T20:00:01.646Z,9.6
2019-03-29T20:05:01.439Z,9.5
2019-03-29T20:10:02.153Z,9.4
2019-03-29T20:15:01.672Z,9.3
2019-03-29T20:20:02.698Z,9.2
2019-03-29T20:25:01.706Z,9.1
2019-03-29T20:30:01.793Z,9
2019-03-29T20:35:01.147Z,8.9
2019-03-29T20:40:01.213Z,8.8
2019-03-29T20:45:01.474Z,8.7
2019-03-29T20:50:01.909Z,8.6
2019-03-29T20:55:02.919Z,8.5
2019-03-29T21:00:02.350Z,8.4
2019-03-29T21:05:01.630Z,8.4
2019-03-29T21:10:01.598Z,8.3
2019-03-29T21:15:01.723Z,8.2
2019-03-29T21:20:01.964Z,8.1
2019-03-29T21:25:01.611Z,8
2019-03-29T21:30:01.984Z,7.9
2019-03-29T21:35:01.998Z,7.8
2019-03-29T21:40:01.996Z,7.8
2019-03-29T21:45:01.889Z,7.7
2019-03-29T21:50:01.666Z,7.6
2019-03-29T21:55:01.674Z,7.5
2019-03-29T22:00:01.419Z,7.4
2019-03-29T22:05:03.268Z,7.4
2019-03-29T22:10:01.866Z,7.3
2019-03-29T22:15:02.123Z,7.3
2019-03-29T22:20:01.228Z,7.2
2019-03-29T22:25:01.975Z,7.1
2019-03-29T22:30:01.960Z,7.1
2019-03-29T22:35:01.937Z,7
2019-03-29T22:40:02.203Z,6.9
2019-03-29T22:45:02.164Z,6.8
2019-03-29T22:50:02.797Z,6.7
2019-03-29T22:55:02.056Z,6.7
2019-03-29T23:00:01.321Z,6.6
2019-03-29T23:05:01.231Z,6.5
2019-03-29T23:10:01.826Z,6.4
2019-03-29T23:15:01.536Z,6.3
2019-03-29T23:20:02.055Z,6.3
2019-03-29T23:25:02.055Z,6.2
2019-03-29T23:30:02.315Z,6.1
2019-03-29T23:35:01.664Z,6.1
2019-03-29T23:40:01.511Z,6
2019-03-29T23:45:01.738Z,5.9
2019-03-29T23:50:02.557Z,5.9
2019-03-29T23:55:01.365Z,5.8
